sensor_id;sensor_type;location;lat;lon;timestamp;temperature;humidity
9425;DHT22;17139;52.140;11.636;2023-05-24T00:01:02;9.40;49.10
9425;DHT22;17139;52.140;11.636;2023-05-24T00:03:29;9.40;49.20
9425;DHT22;17139;52.140;11.636;2023-05-24T00:05:59;9.60;49.50
9425;DHT22;17139;52.140;11.636;2023-05-24T00:08:26;9.50;49.00
9425;DHT22;17139;52.140;11.636;2023-05-24T00:10:54;9.40;49.10
9425;DHT22;17139;52.140;11.636;2023-05-24T00:13:21;9.60;49.30
9425;DHT22;17139;52.140;11.636;2023-05-24T00:15:48;9.60;48.80
9425;DHT22;17139;52.140;11.636;2023-05-24T00:18:15;9.50;49.00
9425;DHT22;17139;52.140;11.636;2023-05-24T00:20:43;9.40;49.10
9425;DHT22;17139;52.140;11.636;2023-05-24T00:23:10;9.40;49.20
9425;DHT22;17139;52.140;11.636;2023-05-24T00:25:37;9.30;49.20
9425;DHT22;17139;52.140;11.636;2023-05-24T00:28:05;9.30;49.30
9425;DHT22;17139;52.140;11.636;2023-05-24T00:30:32;9.30;49.30
9425;DHT22;17139;52.140;11.636;2023-05-24T00:32:59;9.60;49.40
9425;DHT22;17139;52.140;11.636;2023-05-24T00:35:26;10.10;48.70
9425;DHT22;17139;52.140;11.636;2023-05-24T00:37:54;9.90;48.30
9425;DHT22;17139;52.140;11.636;2023-05-24T00:40:21;9.70;48.60
9425;DHT22;17139;52.140;11.636;2023-05-24T00:42:48;9.60;48.80
9425;DHT22;17139;52.140;11.636;2023-05-24T00:45:17;9.40;48.90
9425;DHT22;17139;52.140;11.636;2023-05-24T00:47:45;9.40;49.10
9425;DHT22;17139;52.140;11.636;2023-05-24T00:50:12;9.30;49.10
9425;DHT22;17139;52.140;11.636;2023-05-24T00:52:42;9.40;49.30
9425;DHT22;17139;52.140;11.636;2023-05-24T00:55:09;9.70;49.00
9425;DHT22;17139;52.140;11.636;2023-05-24T00:57:36;9.50;48.50
9425;DHT22;17139;52.140;11.636;2023-05-24T01:00:07;9.40;48.80
9425;DHT22;17139;52.140;11.636;2023-05-24T01:02:37;9.30;49.00
9425;DHT22;17139;52.140;11.636;2023-05-24T01:05:05;9.20;49.10
9425;DHT22;17139;52.140;11.636;2023-05-24T01:07:39;9.20;49.20
9425;DHT22;17139;52.140;11.636;2023-05-24T01:10:13;9.10;49.20
9425;DHT22;17139;52.140;11.636;2023-05-24T01:12:52;9.70;49.10
9425;DHT22;17139;52.140;11.636;2023-05-24T01:15:24;10.20;48.30
9425;DHT22;17139;52.140;11.636;2023-05-24T01:18:01;9.80;48.10
9425;DHT22;17139;52.140;11.636;2023-05-24T01:20:32;9.50;48.50
9425;DHT22;17139;52.140;11.636;2023-05-24T01:23:27;9.40;48.80
9425;DHT22;17139;52.140;11.636;2023-05-24T01:26:17;9.20;48.90
9425;DHT22;17139;52.140;11.636;2023-05-24T01:28:47;9.10;49.30
9425;DHT22;17139;52.140;11.636;2023-05-24T01:31:16;9.60;49.00
9425;DHT22;17139;52.140;11.636;2023-05-24T01:33:43;10.30;48.30
9425;DHT22;17139;52.140;11.636;2023-05-24T01:36:11;9.90;48.00
9425;DHT22;17139;52.140;11.636;2023-05-24T01:38:38;9.50;48.40
9425;DHT22;17139;52.140;11.636;2023-05-24T01:41:14;9.30;48.80
9425;DHT22;17139;52.140;11.636;2023-05-24T01:43:52;9.20;49.10
9425;DHT22;17139;52.140;11.636;2023-05-24T01:46:28;9.10;49.20
9425;DHT22;17139;52.140;11.636;2023-05-24T01:49:03;9.30;49.40
9425;DHT22;17139;52.140;11.636;2023-05-24T01:51:37;9.20;49.00
9425;DHT22;17139;52.140;11.636;2023-05-24T01:54:05;9.10;49.20
9425;DHT22;17139;52.140;11.636;2023-05-24T01:56:33;9.00;49.00
9425;DHT22;17139;52.140;11.636;2023-05-24T01:59:03;9.00;49.10
9425;DHT22;17139;52.140;11.636;2023-05-24T02:01:32;8.90;49.20
9425;DHT22;17139;52.140;11.636;2023-05-24T02:04:00;8.80;49.20
9425;DHT22;17139;52.140;11.636;2023-05-24T02:06:28;8.90;49.30
9425;DHT22;17139;52.140;11.636;2023-05-24T02:08:55;8.80;49.30
9425;DHT22;17139;52.140;11.636;2023-05-24T02:11:22;8.80;49.30
9425;DHT22;17139;52.140;11.636;2023-05-24T02:13:49;9.60;49.40
9425;DHT22;17139;52.140;11.636;2023-05-24T02:16:17;9.40;48.70
9425;DHT22;17139;52.140;11.636;2023-05-24T02:18:44;9.20;48.80
9425;DHT22;17139;52.140;11.636;2023-05-24T02:21:12;9.00;49.00
9425;DHT22;17139;52.140;11.636;2023-05-24T02:23:39;8.90;49.20
9425;DHT22;17139;52.140;11.636;2023-05-24T02:26:07;8.90;49.30
9425;DHT22;17139;52.140;11.636;2023-05-24T02:28:36;8.90;49.40
9425;DHT22;17139;52.140;11.636;2023-05-24T02:31:03;8.90;49.50
9425;DHT22;17139;52.140;11.636;2023-05-24T02:33:32;9.60;49.50
9425;DHT22;17139;52.140;11.636;2023-05-24T02:35:59;10.30;48.70
9425;DHT22;17139;52.140;11.636;2023-05-24T02:38:26;9.80;48.20
9425;DHT22;17139;52.140;11.636;2023-05-24T02:40:53;9.50;48.70
9425;DHT22;17139;52.140;11.636;2023-05-24T02:43:20;9.30;49.20
9425;DHT22;17139;52.140;11.636;2023-05-24T02:45:47;9.20;49.40
9425;DHT22;17139;52.140;11.636;2023-05-24T02:48:14;9.10;49.50
9425;DHT22;17139;52.140;11.636;2023-05-24T02:50:43;9.00;50.20
9425;DHT22;17139;52.140;11.636;2023-05-24T02:53:10;9.00;49.60
9425;DHT22;17139;52.140;11.636;2023-05-24T02:55:37;9.00;49.60
9425;DHT22;17139;52.140;11.636;2023-05-24T02:58:04;9.10;49.90
9425;DHT22;17139;52.140;11.636;2023-05-24T03:00:32;9.10;49.40
9425;DHT22;17139;52.140;11.636;2023-05-24T03:03:00;9.10;49.50
9425;DHT22;17139;52.140;11.636;2023-05-24T03:05:28;9.10;49.50
9425;DHT22;17139;52.140;11.636;2023-05-24T03:07:56;9.00;49.50
9425;DHT22;17139;52.140;11.636;2023-05-24T03:10:24;9.00;49.50
9425;DHT22;17139;52.140;11.636;2023-05-24T03:12:51;8.90;49.50
9425;DHT22;17139;52.140;11.636;2023-05-24T03:15:18;8.90;49.60
9425;DHT22;17139;52.140;11.636;2023-05-24T03:17:45;9.00;49.90
9425;DHT22;17139;52.140;11.636;2023-05-24T03:20:12;9.40;49.80
9425;DHT22;17139;52.140;11.636;2023-05-24T03:22:40;9.30;49.10
9425;DHT22;17139;52.140;11.636;2023-05-24T03:25:09;9.90;49.30
9425;DHT22;17139;52.140;11.636;2023-05-24T03:27:36;9.60;48.80
9425;DHT22;17139;52.140;11.636;2023-05-24T03:30:04;9.30;49.10
9425;DHT22;17139;52.140;11.636;2023-05-24T03:32:31;9.10;49.30
9425;DHT22;17139;52.140;11.636;2023-05-24T03:34:58;9.00;49.60
9425;DHT22;17139;52.140;11.636;2023-05-24T03:37:26;9.80;49.60
9425;DHT22;17139;52.140;11.636;2023-05-24T03:39:53;9.40;48.80
9425;DHT22;17139;52.140;11.636;2023-05-24T03:42:21;9.20;49.20
9425;DHT22;17139;52.140;11.636;2023-05-24T03:44:48;9.00;49.40
9425;DHT22;17139;52.140;11.636;2023-05-24T03:47:15;8.90;49.70
9425;DHT22;17139;52.140;11.636;2023-05-24T03:49:42;8.90;49.80
9425;DHT22;17139;52.140;11.636;2023-05-24T03:52:09;8.80;49.80
9425;DHT22;17139;52.140;11.636;2023-05-24T03:54:36;8.80;49.90
9425;DHT22;17139;52.140;11.636;2023-05-24T03:57:03;8.80;49.90
9425;DHT22;17139;52.140;11.636;2023-05-24T03:59:32;8.80;49.80
9425;DHT22;17139;52.140;11.636;2023-05-24T04:01:59;8.70;49.80
9425;DHT22;17139;52.140;11.636;2023-05-24T04:04:26;8.70;49.90
9425;DHT22;17139;52.140;11.636;2023-05-24T04:06:53;8.70;49.80
9425;DHT22;17139;52.140;11.636;2023-05-24T04:09:21;8.70;49.80
9425;DHT22;17139;52.140;11.636;2023-05-24T04:11:49;8.70;49.80
9425;DHT22;17139;52.140;11.636;2023-05-24T04:14:16;8.70;49.80
9425;DHT22;17139;52.140;11.636;2023-05-24T04:16:44;8.70;49.70
9425;DHT22;17139;52.140;11.636;2023-05-24T04:19:11;8.70;49.70
9425;DHT22;17139;52.140;11.636;2023-05-24T04:21:38;8.70;49.70
9425;DHT22;17139;52.140;11.636;2023-05-24T04:24:06;9.40;50.30
9425;DHT22;17139;52.140;11.636;2023-05-24T04:26:33;9.20;49.30
9425;DHT22;17139;52.140;11.636;2023-05-24T04:29:02;9.10;49.50
9425;DHT22;17139;52.140;11.636;2023-05-24T04:31:29;9.10;49.70
9425;DHT22;17139;52.140;11.636;2023-05-24T04:33:59;9.00;49.70
9425;DHT22;17139;52.140;11.636;2023-05-24T04:36:26;9.70;50.20
9425;DHT22;17139;52.140;11.636;2023-05-24T04:38:56;9.60;49.50
9425;DHT22;17139;52.140;11.636;2023-05-24T04:41:27;10.20;49.90
9425;DHT22;17139;52.140;11.636;2023-05-24T04:43:56;10.70;49.20
9425;DHT22;17139;52.140;11.636;2023-05-24T04:46:24;10.30;48.80
9425;DHT22;17139;52.140;11.636;2023-05-24T04:48:51;10.00;49.30
9425;DHT22;17139;52.140;11.636;2023-05-24T04:51:22;9.70;49.50
9425;DHT22;17139;52.140;11.636;2023-05-24T04:53:49;9.60;49.90
9425;DHT22;17139;52.140;11.636;2023-05-24T04:56:16;9.50;50.00
9425;DHT22;17139;52.140;11.636;2023-05-24T04:58:44;9.50;50.10
9425;DHT22;17139;52.140;11.636;2023-05-24T05:01:11;9.50;50.10
9425;DHT22;17139;52.140;11.636;2023-05-24T05:03:38;9.40;50.00
9425;DHT22;17139;52.140;11.636;2023-05-24T05:06:05;9.40;50.10
9425;DHT22;17139;52.140;11.636;2023-05-24T05:08:34;9.40;50.10
9425;DHT22;17139;52.140;11.636;2023-05-24T05:11:01;9.40;50.10
9425;DHT22;17139;52.140;11.636;2023-05-24T05:13:28;9.40;50.10
9425;DHT22;17139;52.140;11.636;2023-05-24T05:15:55;9.50;50.20
9425;DHT22;17139;52.140;11.636;2023-05-24T05:18:22;9.80;50.60
9425;DHT22;17139;52.140;11.636;2023-05-24T05:20:49;10.20;50.10
9425;DHT22;17139;52.140;11.636;2023-05-24T05:23:17;10.10;49.60
9425;DHT22;17139;52.140;11.636;2023-05-24T05:25:45;9.90;49.70
9425;DHT22;17139;52.140;11.636;2023-05-24T05:28:12;9.90;49.90
9425;DHT22;17139;52.140;11.636;2023-05-24T05:30:39;10.30;50.20
9425;DHT22;17139;52.140;11.636;2023-05-24T05:33:06;10.20;49.60
9425;DHT22;17139;52.140;11.636;2023-05-24T05:35:33;10.40;50.20
9425;DHT22;17139;52.140;11.636;2023-05-24T05:38:00;10.20;49.60
9425;DHT22;17139;52.140;11.636;2023-05-24T05:40:27;10.30;50.10
9425;DHT22;17139;52.140;11.636;2023-05-24T05:42:55;10.30;49.80
9425;DHT22;17139;52.140;11.636;2023-05-24T05:45:23;10.20;49.80
9425;DHT22;17139;52.140;11.636;2023-05-24T05:47:51;10.10;50.00
9425;DHT22;17139;52.140;11.636;2023-05-24T05:50:18;10.10;50.10
9425;DHT22;17139;52.140;11.636;2023-05-24T05:52:45;10.10;50.00
9425;DHT22;17139;52.140;11.636;2023-05-24T05:55:12;10.00;50.00
9425;DHT22;17139;52.140;11.636;2023-05-24T05:57:39;10.00;49.90
9425;DHT22;17139;52.140;11.636;2023-05-24T06:00:08;10.90;50.10
9425;DHT22;17139;52.140;11.636;2023-05-24T06:02:36;10.70;49.30
9425;DHT22;17139;52.140;11.636;2023-05-24T06:05:03;10.40;49.50
9425;DHT22;17139;52.140;11.636;2023-05-24T06:07:30;10.30;49.70
9425;DHT22;17139;52.140;11.636;2023-05-24T06:09:57;10.30;50.50
9425;DHT22;17139;52.140;11.636;2023-05-24T06:12:24;10.40;49.90
9425;DHT22;17139;52.140;11.636;2023-05-24T06:14:52;10.40;49.90
9425;DHT22;17139;52.140;11.636;2023-05-24T06:17:23;10.40;49.90
9425;DHT22;17139;52.140;11.636;2023-05-24T06:19:50;11.30;49.40
9425;DHT22;17139;52.140;11.636;2023-05-24T06:22:18;11.00;49.10
9425;DHT22;17139;52.140;11.636;2023-05-24T06:24:46;10.70;49.40
9425;DHT22;17139;52.140;11.636;2023-05-24T06:27:14;10.60;49.70
9425;DHT22;17139;52.140;11.636;2023-05-24T06:29:41;10.60;49.80
9425;DHT22;17139;52.140;11.636;2023-05-24T06:32:08;10.60;49.80
9425;DHT22;17139;52.140;11.636;2023-05-24T06:34:36;10.50;49.90
9425;DHT22;17139;52.140;11.636;2023-05-24T06:37:03;10.70;50.10
9425;DHT22;17139;52.140;11.636;2023-05-24T06:39:30;10.90;49.80
9425;DHT22;17139;52.140;11.636;2023-05-24T06:41:57;10.70;49.50
9425;DHT22;17139;52.140;11.636;2023-05-24T06:44:27;10.60;49.80
9425;DHT22;17139;52.140;11.636;2023-05-24T06:46:59;10.50;50.00
9425;DHT22;17139;52.140;11.636;2023-05-24T06:49:26;10.40;50.10
9425;DHT22;17139;52.140;11.636;2023-05-24T06:51:55;10.40;50.30
9425;DHT22;17139;52.140;11.636;2023-05-24T06:54:22;10.30;50.30
9425;DHT22;17139;52.140;11.636;2023-05-24T06:56:50;11.00;50.10
9425;DHT22;17139;52.140;11.636;2023-05-24T06:59:17;10.90;49.60
9425;DHT22;17139;52.140;11.636;2023-05-24T07:01:44;10.70;49.80
9425;DHT22;17139;52.140;11.636;2023-05-24T07:04:11;10.60;50.00
9425;DHT22;17139;52.140;11.636;2023-05-24T07:06:38;10.50;50.20
9425;DHT22;17139;52.140;11.636;2023-05-24T07:09:06;10.40;50.20
9425;DHT22;17139;52.140;11.636;2023-05-24T07:11:35;10.50;50.40
9425;DHT22;17139;52.140;11.636;2023-05-24T07:14:01;10.40;50.40
9425;DHT22;17139;52.140;11.636;2023-05-24T07:16:28;10.40;50.40
9425;DHT22;17139;52.140;11.636;2023-05-24T07:18:55;10.50;50.60
9425;DHT22;17139;52.140;11.636;2023-05-24T07:21:22;11.00;50.60
9425;DHT22;17139;52.140;11.636;2023-05-24T07:23:50;10.90;49.90
9425;DHT22;17139;52.140;11.636;2023-05-24T07:26:19;10.80;50.00
9425;DHT22;17139;52.140;11.636;2023-05-24T07:28:46;11.60;50.00
9425;DHT22;17139;52.140;11.636;2023-05-24T07:31:13;11.20;49.50
9425;DHT22;17139;52.140;11.636;2023-05-24T07:33:40;11.40;50.20
9425;DHT22;17139;52.140;11.636;2023-05-24T07:36:08;11.10;49.90
9425;DHT22;17139;52.140;11.636;2023-05-24T07:38:35;11.00;50.50
9425;DHT22;17139;52.140;11.636;2023-05-24T07:41:04;10.80;50.40
9425;DHT22;17139;52.140;11.636;2023-05-24T07:43:33;10.80;50.50
9425;DHT22;17139;52.140;11.636;2023-05-24T07:46:02;10.70;50.60
9425;DHT22;17139;52.140;11.636;2023-05-24T07:48:29;10.70;50.70
9425;DHT22;17139;52.140;11.636;2023-05-24T07:50:56;10.70;50.70
9425;DHT22;17139;52.140;11.636;2023-05-24T07:53:23;10.60;50.60
9425;DHT22;17139;52.140;11.636;2023-05-24T07:55:50;11.60;50.80
9425;DHT22;17139;52.140;11.636;2023-05-24T07:58:17;11.40;50.20
9425;DHT22;17139;52.140;11.636;2023-05-24T08:00:46;11.20;50.30
9425;DHT22;17139;52.140;11.636;2023-05-24T08:03:13;11.20;50.40
9425;DHT22;17139;52.140;11.636;2023-05-24T08:05:41;11.20;50.40
9425;DHT22;17139;52.140;11.636;2023-05-24T08:08:08;11.20;50.60
9425;DHT22;17139;52.140;11.636;2023-05-24T08:10:35;11.20;51.30
9425;DHT22;17139;52.140;11.636;2023-05-24T08:13:02;11.80;50.70
9425;DHT22;17139;52.140;11.636;2023-05-24T08:15:34;11.60;50.00
9425;DHT22;17139;52.140;11.636;2023-05-24T08:18:03;11.40;50.40
9425;DHT22;17139;52.140;11.636;2023-05-24T08:20:30;11.30;50.70
9425;DHT22;17139;52.140;11.636;2023-05-24T08:23:00;11.20;50.80
9425;DHT22;17139;52.140;11.636;2023-05-24T08:25:27;11.10;50.90
9425;DHT22;17139;52.140;11.636;2023-05-24T08:27:54;11.00;51.00
9425;DHT22;17139;52.140;11.636;2023-05-24T08:30:22;10.90;51.00
9425;DHT22;17139;52.140;11.636;2023-05-24T08:32:49;10.90;51.20
9425;DHT22;17139;52.140;11.636;2023-05-24T08:35:18;11.00;51.20
9425;DHT22;17139;52.140;11.636;2023-05-24T08:37:45;11.60;52.10
9425;DHT22;17139;52.140;11.636;2023-05-24T08:40:13;12.30;51.60
9425;DHT22;17139;52.140;11.636;2023-05-24T08:42:41;11.80;50.70
9425;DHT22;17139;52.140;11.636;2023-05-24T08:45:10;11.60;51.00
9425;DHT22;17139;52.140;11.636;2023-05-24T08:47:38;11.40;51.30
9425;DHT22;17139;52.140;11.636;2023-05-24T08:50:07;11.30;51.50
9425;DHT22;17139;52.140;11.636;2023-05-24T08:52:35;11.40;51.60
9425;DHT22;17139;52.140;11.636;2023-05-24T08:55:03;11.40;51.50
9425;DHT22;17139;52.140;11.636;2023-05-24T08:57:31;11.40;51.80
9425;DHT22;17139;52.140;11.636;2023-05-24T08:59:59;11.50;51.70
9425;DHT22;17139;52.140;11.636;2023-05-24T09:02:26;11.50;51.80
9425;DHT22;17139;52.140;11.636;2023-05-24T09:04:54;11.50;51.70
9425;DHT22;17139;52.140;11.636;2023-05-24T09:07:22;11.50;51.60
9425;DHT22;17139;52.140;11.636;2023-05-24T09:09:57;11.50;51.60
9425;DHT22;17139;52.140;11.636;2023-05-24T09:12:26;11.50;51.50
9425;DHT22;17139;52.140;11.636;2023-05-24T09:14:58;12.10;52.50
9425;DHT22;17139;52.140;11.636;2023-05-24T09:17:25;12.70;52.20
9425;DHT22;17139;52.140;11.636;2023-05-24T09:19:52;12.40;51.30
9425;DHT22;17139;52.140;11.636;2023-05-24T09:22:20;12.20;51.50
9425;DHT22;17139;52.140;11.636;2023-05-24T09:24:52;12.20;51.70
9425;DHT22;17139;52.140;11.636;2023-05-24T09:27:23;12.00;52.10
9425;DHT22;17139;52.140;11.636;2023-05-24T09:29:50;11.80;51.30
9425;DHT22;17139;52.140;11.636;2023-05-24T09:32:19;11.80;51.70
9425;DHT22;17139;52.140;11.636;2023-05-24T09:34:50;12.20;52.60
9425;DHT22;17139;52.140;11.636;2023-05-24T09:37:21;12.20;51.70
9425;DHT22;17139;52.140;11.636;2023-05-24T09:39:51;12.10;51.80
9425;DHT22;17139;52.140;11.636;2023-05-24T09:42:19;12.10;52.00
9425;DHT22;17139;52.140;11.636;2023-05-24T09:44:58;12.10;52.00
9425;DHT22;17139;52.140;11.636;2023-05-24T09:47:28;12.20;52.10
9425;DHT22;17139;52.140;11.636;2023-05-24T09:49:55;12.60;52.40
9425;DHT22;17139;52.140;11.636;2023-05-24T09:52:22;13.00;51.90
9425;DHT22;17139;52.140;11.636;2023-05-24T09:54:51;13.10;51.40
9425;DHT22;17139;52.140;11.636;2023-05-24T09:57:18;13.10;51.40
9425;DHT22;17139;52.140;11.636;2023-05-24T09:59:48;13.50;51.60
9425;DHT22;17139;52.140;11.636;2023-05-24T10:02:15;13.70;51.30
9425;DHT22;17139;52.140;11.636;2023-05-24T10:04:45;14.00;51.00
9425;DHT22;17139;52.140;11.636;2023-05-24T10:07:13;14.20;50.70
9425;DHT22;17139;52.140;11.636;2023-05-24T10:09:41;15.10;50.30
9425;DHT22;17139;52.140;11.636;2023-05-24T10:12:11;15.50;49.20
9425;DHT22;17139;52.140;11.636;2023-05-24T10:14:38;15.60;49.00
9425;DHT22;17139;52.140;11.636;2023-05-24T10:17:07;15.30;49.20
9425;DHT22;17139;52.140;11.636;2023-05-24T10:19:35;15.10;49.90
9425;DHT22;17139;52.140;11.636;2023-05-24T10:22:06;14.90;49.90
9425;DHT22;17139;52.140;11.636;2023-05-24T10:24:38;14.60;50.10
9425;DHT22;17139;52.140;11.636;2023-05-24T10:27:11;14.50;50.50
9425;DHT22;17139;52.140;11.636;2023-05-24T10:29:50;14.60;50.60
9425;DHT22;17139;52.140;11.636;2023-05-24T10:32:20;15.30;49.40
9425;DHT22;17139;52.140;11.636;2023-05-24T10:34:50;15.90;48.80
9425;DHT22;17139;52.140;11.636;2023-05-24T10:37:18;15.50;48.80
9425;DHT22;17139;52.140;11.636;2023-05-24T10:39:45;15.10;49.30
9425;DHT22;17139;52.140;11.636;2023-05-24T10:42:12;15.10;49.90
9425;DHT22;17139;52.140;11.636;2023-05-24T10:44:39;15.10;50.00
9425;DHT22;17139;52.140;11.636;2023-05-24T10:47:09;15.30;49.80
9425;DHT22;17139;52.140;11.636;2023-05-24T10:49:38;15.40;49.60
9425;DHT22;17139;52.140;11.636;2023-05-24T10:52:12;15.50;49.50
9425;DHT22;17139;52.140;11.636;2023-05-24T10:54:40;15.60;49.40
9425;DHT22;17139;52.140;11.636;2023-05-24T10:57:27;15.50;49.30
9425;DHT22;17139;52.140;11.636;2023-05-24T10:59:56;15.30;49.50
9425;DHT22;17139;52.140;11.636;2023-05-24T11:02:26;15.20;49.70
9425;DHT22;17139;52.140;11.636;2023-05-24T11:04:54;15.10;49.80
9425;DHT22;17139;52.140;11.636;2023-05-24T11:07:22;14.90;49.80
9425;DHT22;17139;52.140;11.636;2023-05-24T11:09:49;14.70;50.00
9425;DHT22;17139;52.140;11.636;2023-05-24T11:12:21;14.50;50.20
9425;DHT22;17139;52.140;11.636;2023-05-24T11:14:50;14.20;50.40
9425;DHT22;17139;52.140;11.636;2023-05-24T11:17:19;13.80;50.40
9425;DHT22;17139;52.140;11.636;2023-05-24T11:19:49;13.50;50.70
9425;DHT22;17139;52.140;11.636;2023-05-24T11:22:19;13.40;50.80
9425;DHT22;17139;52.140;11.636;2023-05-24T11:24:46;13.30;50.80
9425;DHT22;17139;52.140;11.636;2023-05-24T11:27:13;13.40;51.10
9425;DHT22;17139;52.140;11.636;2023-05-24T11:29:41;13.50;51.10
9425;DHT22;17139;52.140;11.636;2023-05-24T11:32:13;13.60;50.70
9425;DHT22;17139;52.140;11.636;2023-05-24T11:34:41;13.60;50.40
9425;DHT22;17139;52.140;11.636;2023-05-24T11:37:12;13.60;50.50
9425;DHT22;17139;52.140;11.636;2023-05-24T11:39:40;13.70;50.70
9425;DHT22;17139;52.140;11.636;2023-05-24T11:42:07;13.80;50.50
9425;DHT22;17139;52.140;11.636;2023-05-24T11:44:35;13.90;50.40
9425;DHT22;17139;52.140;11.636;2023-05-24T11:47:05;14.00;50.40
9425;DHT22;17139;52.140;11.636;2023-05-24T11:49:33;14.30;49.80
9425;DHT22;17139;52.140;11.636;2023-05-24T11:52:00;14.60;49.10
9425;DHT22;17139;52.140;11.636;2023-05-24T11:54:30;14.60;49.40
9425;DHT22;17139;52.140;11.636;2023-05-24T11:56:59;14.70;49.60
9425;DHT22;17139;52.140;11.636;2023-05-24T11:59:28;14.80;49.80
9425;DHT22;17139;52.140;11.636;2023-05-24T12:02:00;14.90;49.80
9425;DHT22;17139;52.140;11.636;2023-05-24T12:04:27;15.00;49.60
9425;DHT22;17139;52.140;11.636;2023-05-24T12:06:55;15.00;49.60
9425;DHT22;17139;52.140;11.636;2023-05-24T12:09:22;15.80;47.50
9425;DHT22;17139;52.140;11.636;2023-05-24T12:11:51;15.50;48.40
9425;DHT22;17139;52.140;11.636;2023-05-24T12:14:21;15.70;48.20
9425;DHT22;17139;52.140;11.636;2023-05-24T12:16:48;15.60;48.70
9425;DHT22;17139;52.140;11.636;2023-05-24T12:19:16;15.60;49.00
9425;DHT22;17139;52.140;11.636;2023-05-24T12:21:45;15.60;49.10
9425;DHT22;17139;52.140;11.636;2023-05-24T12:24:14;15.70;49.00
9425;DHT22;17139;52.140;11.636;2023-05-24T12:26:41;15.90;49.20
9425;DHT22;17139;52.140;11.636;2023-05-24T12:29:11;16.60;47.30
9425;DHT22;17139;52.140;11.636;2023-05-24T12:31:42;17.30;45.70
9425;DHT22;17139;52.140;11.636;2023-05-24T12:34:11;16.90;46.90
9425;DHT22;17139;52.140;11.636;2023-05-24T12:36:38;16.70;47.80
9425;DHT22;17139;52.140;11.636;2023-05-24T12:39:17;16.50;48.10
9425;DHT22;17139;52.140;11.636;2023-05-24T12:41:48;16.40;48.10
9425;DHT22;17139;52.140;11.636;2023-05-24T12:44:22;16.20;48.50
9425;DHT22;17139;52.140;11.636;2023-05-24T12:46:49;16.20;48.70
9425;DHT22;17139;52.140;11.636;2023-05-24T12:49:18;16.60;47.20
9425;DHT22;17139;52.140;11.636;2023-05-24T12:51:45;17.00;46.30
9425;DHT22;17139;52.140;11.636;2023-05-24T12:54:12;16.70;47.30
9425;DHT22;17139;52.140;11.636;2023-05-24T12:56:39;16.40;48.00
9425;DHT22;17139;52.140;11.636;2023-05-24T12:59:06;16.30;48.30
9425;DHT22;17139;52.140;11.636;2023-05-24T13:01:35;16.20;48.50
9425;DHT22;17139;52.140;11.636;2023-05-24T13:04:02;16.30;48.70
9425;DHT22;17139;52.140;11.636;2023-05-24T13:06:29;16.30;48.50
9425;DHT22;17139;52.140;11.636;2023-05-24T13:08:56;16.30;48.70
9425;DHT22;17139;52.140;11.636;2023-05-24T13:11:23;16.30;48.70
9425;DHT22;17139;52.140;11.636;2023-05-24T13:13:52;17.20;46.20
9425;DHT22;17139;52.140;11.636;2023-05-24T13:16:19;16.90;47.30
9425;DHT22;17139;52.140;11.636;2023-05-24T13:18:47;16.70;47.80
9425;DHT22;17139;52.140;11.636;2023-05-24T13:21:15;16.50;48.10
9425;DHT22;17139;52.140;11.636;2023-05-24T13:23:42;16.30;48.40
9425;DHT22;17139;52.140;11.636;2023-05-24T13:26:10;16.30;48.60
9425;DHT22;17139;52.140;11.636;2023-05-24T13:28:37;16.30;48.70
9425;DHT22;17139;52.140;11.636;2023-05-24T13:31:05;16.40;48.10
9425;DHT22;17139;52.140;11.636;2023-05-24T13:33:32;17.10;46.30
9425;DHT22;17139;52.140;11.636;2023-05-24T13:36:01;16.80;47.10
9425;DHT22;17139;52.140;11.636;2023-05-24T13:38:28;16.50;47.80
9425;DHT22;17139;52.140;11.636;2023-05-24T13:40:55;16.30;48.00
9425;DHT22;17139;52.140;11.636;2023-05-24T13:43:22;16.10;48.40
9425;DHT22;17139;52.140;11.636;2023-05-24T13:45:49;16.10;48.60
9425;DHT22;17139;52.140;11.636;2023-05-24T13:48:16;16.00;48.60
9425;DHT22;17139;52.140;11.636;2023-05-24T13:50:43;16.00;48.70
9425;DHT22;17139;52.140;11.636;2023-05-24T13:53:12;16.00;48.80
9425;DHT22;17139;52.140;11.636;2023-05-24T13:55:39;15.90;48.70
9425;DHT22;17139;52.140;11.636;2023-05-24T13:58:06;15.80;48.90
9425;DHT22;17139;52.140;11.636;2023-05-24T14:00:33;15.80;49.00
9425;DHT22;17139;52.140;11.636;2023-05-24T14:03:01;15.70;49.00
9425;DHT22;17139;52.140;11.636;2023-05-24T14:05:29;15.70;49.10
9425;DHT22;17139;52.140;11.636;2023-05-24T14:07:57;16.40;46.80
9425;DHT22;17139;52.140;11.636;2023-05-24T14:10:32;16.20;47.80
9425;DHT22;17139;52.140;11.636;2023-05-24T14:13:01;16.10;48.10
9425;DHT22;17139;52.140;11.636;2023-05-24T14:15:28;16.80;45.70
9425;DHT22;17139;52.140;11.636;2023-05-24T14:17:55;16.60;47.00
9425;DHT22;17139;52.140;11.636;2023-05-24T14:20:22;16.40;47.70
9425;DHT22;17139;52.140;11.636;2023-05-24T14:22:49;16.40;48.00
9425;DHT22;17139;52.140;11.636;2023-05-24T14:25:16;16.40;48.00
9425;DHT22;17139;52.140;11.636;2023-05-24T14:27:45;16.40;48.10
9425;DHT22;17139;52.140;11.636;2023-05-24T14:30:12;16.30;48.00
9425;DHT22;17139;52.140;11.636;2023-05-24T14:32:39;16.30;48.00
9425;DHT22;17139;52.140;11.636;2023-05-24T14:35:07;16.60;47.20
9425;DHT22;17139;52.140;11.636;2023-05-24T14:37:34;16.60;47.70
9425;DHT22;17139;52.140;11.636;2023-05-24T14:40:01;16.50;48.10
9425;DHT22;17139;52.140;11.636;2023-05-24T14:42:28;16.60;48.20
9425;DHT22;17139;52.140;11.636;2023-05-24T14:44:57;16.60;48.20
9425;DHT22;17139;52.140;11.636;2023-05-24T14:47:24;16.60;48.20
9425;DHT22;17139;52.140;11.636;2023-05-24T14:49:51;16.50;48.10
9425;DHT22;17139;52.140;11.636;2023-05-24T14:52:19;16.30;48.30
9425;DHT22;17139;52.140;11.636;2023-05-24T14:54:46;16.20;48.40
9425;DHT22;17139;52.140;11.636;2023-05-24T14:57:13;16.20;48.60
9425;DHT22;17139;52.140;11.636;2023-05-24T14:59:40;16.20;48.60
9425;DHT22;17139;52.140;11.636;2023-05-24T15:02:08;16.30;48.70
9425;DHT22;17139;52.140;11.636;2023-05-24T15:04:35;16.30;48.50
9425;DHT22;17139;52.140;11.636;2023-05-24T15:07:03;17.10;45.80
9425;DHT22;17139;52.140;11.636;2023-05-24T15:09:30;17.00;46.20
9425;DHT22;17139;52.140;11.636;2023-05-24T15:11:57;17.10;45.60
9425;DHT22;17139;52.140;11.636;2023-05-24T15:14:24;16.90;46.70
9425;DHT22;17139;52.140;11.636;2023-05-24T15:16:51;16.80;47.30
9425;DHT22;17139;52.140;11.636;2023-05-24T15:19:20;16.70;47.50
9425;DHT22;17139;52.140;11.636;2023-05-24T15:21:47;16.50;47.70
9425;DHT22;17139;52.140;11.636;2023-05-24T15:24:14;16.30;47.90
9425;DHT22;17139;52.140;11.636;2023-05-24T15:26:41;16.20;47.90
9425;DHT22;17139;52.140;11.636;2023-05-24T15:29:08;16.00;48.20
9425;DHT22;17139;52.140;11.636;2023-05-24T15:31:35;16.00;48.40
9425;DHT22;17139;52.140;11.636;2023-05-24T15:34:02;16.80;45.70
9425;DHT22;17139;52.140;11.636;2023-05-24T15:36:31;16.60;46.90
9425;DHT22;17139;52.140;11.636;2023-05-24T15:38:58;16.40;47.50
9425;DHT22;17139;52.140;11.636;2023-05-24T15:41:25;16.30;47.90